Time;durP1;ratioP1;P1;durP2;ratioP2;P2;SDS_P1;SDS_P2;PMS_P1;PMS_P2;Temp;Humidity;BMP_temperature;BMP_pressure;BME280_temperature;BME280_humidity;BME280_pressure;Samples;Min_cycle;Max_cycle;Signal;HPM_P1;HPM_P2
2022/07/31 00:02:07;;;;;;;26.67;24.67;;;16.00;99.90;;;;;;5048332;28;20041;-73
2022/07/31 00:04:34;;;;;;;27.15;24.58;;;16.00;99.90;;;;;;5045481;28;20048;-73
2022/07/31 00:07:01;;;;;;;26.17;23.98;;;16.10;99.90;;;;;;5047640;28;20033;-73
2022/07/31 00:09:28;;;;;;;25.75;23.85;;;16.20;99.90;;;;;;5043785;28;20047;-73
2022/07/31 00:12:16;;;;;;;25.67;23.90;;;16.30;99.90;;;;;;5042513;28;20048;-73
2022/07/31 00:14:43;;;;;;;26.38;24.33;;;16.30;99.90;;;;;;5047995;28;20487;-72
2022/07/31 00:17:10;;;;;;;25.98;24.27;;;16.40;99.90;;;;;;5043639;28;20044;-72
2022/07/31 00:19:37;;;;;;;25.73;23.88;;;16.50;99.90;;;;;;5047192;28;20211;-73
2022/07/31 00:22:04;;;;;;;25.05;23.35;;;16.50;99.90;;;;;;5043367;28;20037;-72
2022/07/31 00:24:31;;;;;;;24.88;23.27;;;16.50;99.90;;;;;;5048254;28;20056;-73
2022/07/31 00:26:58;;;;;;;25.58;23.45;;;16.50;99.90;;;;;;5049367;28;20102;-73
2022/07/31 00:29:25;;;;;;;25.40;23.67;;;16.30;99.90;;;;;;5037531;28;20477;-73
2022/07/31 00:31:52;;;;;;;25.67;23.77;;;16.30;99.90;;;;;;5032226;28;20035;-73
2022/07/31 00:34:18;;;;;;;24.67;22.98;;;16.50;99.90;;;;;;5042001;28;20396;-72
2022/07/31 00:36:45;;;;;;;25.20;22.95;;;16.50;99.90;;;;;;5050819;28;20489;-74
2022/07/31 00:39:12;;;;;;;24.05;22.50;;;16.40;99.90;;;;;;5040774;28;20538;-74
2022/07/31 00:41:44;;;;;;;24.70;23.17;;;16.50;99.90;;;;;;5048579;28;20036;-73
2022/07/31 00:44:12;;;;;;;25.20;23.25;;;16.40;99.90;;;;;;5054083;28;20041;-72
2022/07/31 00:46:40;;;;;;;25.60;23.63;;;16.40;99.90;;;;;;5044677;28;20045;-72
2022/07/31 00:49:11;;;;;;;24.17;22.50;;;16.40;99.90;;;;;;5052304;28;20131;-72
2022/07/31 00:51:39;;;;;;;24.30;22.67;;;16.40;99.90;;;;;;5044109;28;20040;-73
2022/07/31 00:54:09;;;;;;;24.33;22.73;;;16.40;99.90;;;;;;5033204;28;20131;-73
2022/07/31 00:56:42;;;;;;;;;;;16.30;99.90;;;;;;5064990;22;20431;-75
2022/07/31 00:59:09;;;;;;;24.42;22.80;;;16.30;99.90;;;;;;5039516;28;19921;-75
2022/07/31 01:01:36;;;;;;;24.35;22.40;;;16.30;99.90;;;;;;5017633;28;20064;-75
2022/07/31 01:04:02;;;;;;;24.08;22.48;;;16.30;99.90;;;;;;5045963;28;20049;-75
2022/07/31 01:06:29;;;;;;;24.30;22.45;;;16.10;99.90;;;;;;5018207;28;20041;-74
2022/07/31 01:08:56;;;;;;;25.65;23.77;;;15.90;99.90;;;;;;5021742;28;20634;-76
2022/07/31 01:11:37;;;;;;;26.05;24.15;;;15.90;99.90;;;;;;5022226;28;20782;-74
2022/07/31 01:14:07;;;;;;;24.75;23.20;;;15.80;99.90;;;;;;5014687;28;20049;-75
2022/07/31 01:16:36;;;;;;;24.55;22.73;;;15.80;99.90;;;;;;5007078;28;20058;-75
2022/07/31 01:19:04;;;;;;;25.13;23.20;;;15.80;99.90;;;;;;5040065;22;20115;31
2022/07/31 01:21:48;;;;;;;23.75;22.05;;;15.80;99.90;;;;;;5037493;28;20036;-80
2022/07/31 01:24:53;;;;;;;24.58;22.73;;;15.80;99.90;;;;;;5026067;28;20053;-78
2022/07/31 01:27:38;;;;;;;23.95;22.35;;;15.80;99.90;;;;;;5033564;28;20044;-79
2022/07/31 01:30:16;;;;;;;23.77;22.02;;;15.80;99.90;;;;;;5036665;28;20108;-80
2022/07/31 01:32:50;;;;;;;24.00;22.30;;;15.60;99.90;;;;;;5022751;28;20052;-79
2022/07/31 01:35:25;;;;;;;23.85;22.15;;;15.50;99.90;;;;;;5035328;28;20110;-82
2022/07/31 01:37:55;;;;;;;;;;;15.70;99.90;;;;;;5041955;28;20036;-81
2022/07/31 01:40:30;;;;;;;23.88;21.98;;;15.60;99.90;;;;;;5055406;28;19921;-78
2022/07/31 01:43:05;;;;;;;23.35;21.75;;;15.50;99.90;;;;;;5040015;28;20112;-84
2022/07/31 01:45:33;;;;;;;22.60;21.20;;;15.50;99.90;;;;;;5022431;28;20045;-80
2022/07/31 01:48:03;;;;;;;23.63;22.02;;;15.60;99.90;;;;;;5040442;28;20294;-79
2022/07/31 01:50:36;;;;;;;23.25;21.65;;;15.60;99.90;;;;;;5043205;28;20572;-80
2022/07/31 01:53:14;;;;;;;22.73;21.33;;;15.50;99.90;;;;;;5039725;28;20515;-79
2022/07/31 01:55:43;;;;;;;23.42;21.77;;;15.70;99.90;;;;;;5032529;28;20049;-80
2022/07/31 01:58:36;;;;;;;22.90;21.23;;;15.50;99.90;;;;;;5026333;28;20090;-81
2022/07/31 02:01:08;;;;;;;;;;;15.40;99.90;;;;;;5026576;28;20043;-81
2022/07/31 02:03:39;;;;;;;23.65;21.95;;;15.30;99.90;;;;;;5055176;28;19924;-78
2022/07/31 02:06:15;;;;;;;23.27;21.63;;;15.30;99.90;;;;;;5039029;28;20045;-81
2022/07/31 02:08:48;;;;;;;22.75;21.23;;;15.30;99.90;;;;;;5037508;28;20240;-78
2022/07/31 02:11:18;;;;;;;23.20;21.60;;;15.20;99.90;;;;;;5025353;28;20143;-79
2022/07/31 02:13:47;;;;;;;23.98;22.17;;;15.00;99.90;;;;;;5040100;28;20044;-81
2022/07/31 02:16:16;;;;;;;23.98;22.25;;;14.90;99.90;;;;;;5020189;28;20052;-83
2022/07/31 02:18:46;;;;;;;22.90;21.40;;;14.80;99.90;;;;;;5040462;28;20048;-80
2022/07/31 02:21:18;;;;;;;23.17;21.48;;;14.90;99.90;;;;;;5040167;28;20268;-85
2022/07/31 02:23:45;;;;;;;24.20;22.55;;;14.80;99.90;;;;;;5054535;28;20054;-79
2022/07/31 02:26:15;;;;;;;24.10;22.40;;;14.60;99.90;;;;;;5039736;28;20044;-82
2022/07/31 02:28:45;;;;;;;23.67;21.95;;;14.50;99.90;;;;;;5043363;28;20348;-82
2022/07/31 02:31:15;;;;;;;24.15;22.17;;;14.50;99.90;;;;;;5045645;28;20041;-83
2022/07/31 02:33:46;;;;;;;23.60;22.00;;;14.50;99.90;;;;;;5027149;28;20135;-81
2022/07/31 02:36:18;;;;;;;22.60;21.15;;;14.50;99.90;;;;;;5024362;28;20050;-83
2022/07/31 02:38:47;;;;;;;23.25;21.55;;;14.50;99.90;;;;;;5058843;28;20052;-79
2022/07/31 02:41:16;;;;;;;21.75;20.35;;;14.50;99.90;;;;;;5040918;28;20094;-80
2022/07/31 02:43:45;;;;;;;22.10;20.70;;;14.30;99.90;;;;;;5042040;28;20146;-82
2022/07/31 02:46:19;;;;;;;22.98;21.27;;;14.30;99.90;;;;;;5027436;28;20055;-80
2022/07/31 02:48:48;;;;;;;22.40;20.67;;;14.30;99.90;;;;;;5042288;28;20064;-78
2022/07/31 02:51:16;;;;;;;22.52;20.70;;;14.30;99.90;;;;;;5027927;28;20048;-81
2022/07/31 02:53:43;;;;;;;22.83;21.25;;;14.20;99.90;;;;;;5026833;28;20133;-80
2022/07/31 02:56:10;;;;;;;23.67;22.02;;;14.20;99.90;;;;;;5043301;28;20553;-79
2022/07/31 02:58:40;;;;;;;23.15;21.42;;;14.10;99.90;;;;;;5041710;28;20264;-81
2022/07/31 03:01:13;;;;;;;22.92;21.30;;;13.90;99.90;;;;;;5043041;28;20037;-82
2022/07/31 03:03:41;;;;;;;24.58;22.58;;;14.00;99.90;;;;;;5041848;28;20134;-80
2022/07/31 03:06:10;;;;;;;24.10;22.40;;;14.00;99.90;;;;;;5041306;28;20136;-79
2022/07/31 03:08:37;;;;;;;25.38;23.25;;;14.00;99.90;;;;;;5055223;28;20102;-83
2022/07/31 03:11:04;;;;;;;24.55;22.33;;;13.90;99.90;;;;;;5027867;28;20127;-79
2022/07/31 03:13:33;;;;;;;25.60;23.58;;;13.80;99.90;;;;;;5041980;28;20048;-79
2022/07/31 03:16:03;;;;;;;25.17;22.95;;;13.70;99.90;;;;;;5056309;28;20602;-79
2022/07/31 03:18:30;;;;;;;24.83;22.75;;;13.80;99.90;;;;;;5041654;28;20127;-82
2022/07/31 03:20:57;;;;;;;25.30;23.15;;;13.80;99.90;;;;;;5049884;28;20455;-80
2022/07/31 03:23:26;;;;;;;23.65;21.80;;;13.70;99.90;;;;;;5027982;28;20044;-78
2022/07/31 03:25:59;;;;;;;22.55;20.75;;;13.40;99.90;;;;;;5040362;28;20060;-80
2022/07/31 03:28:27;;;;;;;23.05;21.05;;;13.40;99.90;;;;;;5037370;28;20062;-80
2022/07/31 03:30:55;;;;;;;22.80;21.20;;;13.30;99.90;;;;;;5017912;28;20084;-79
2022/07/31 03:33:24;;;;;;;23.88;22.08;;;13.20;99.90;;;;;;5039805;28;20122;-79
2022/07/31 03:35:52;;;;;;;24.58;22.60;;;13.20;99.90;;;;;;5033102;28;20051;-81
2022/07/31 03:38:19;;;;;;;23.00;21.00;;;13.20;99.90;;;;;;5033402;28;20049;-84
2022/07/31 03:41:07;;;;;;;23.73;21.85;;;13.30;99.90;;;;;;5031359;28;20132;-81
2022/07/31 03:43:34;;;;;;;21.63;20.23;;;13.30;99.90;;;;;;5023591;28;20045;-80
2022/07/31 03:46:19;;;;;;;21.38;19.65;;;13.30;99.90;;;;;;5018970;28;20091;-82
2022/07/31 03:48:47;;;;;;;22.00;20.05;;;13.30;99.90;;;;;;5004884;28;20095;-80
2022/07/31 03:51:15;;;;;;;21.80;20.10;;;13.30;99.90;;;;;;5029966;28;20206;-81
2022/07/31 03:53:43;;;;;;;22.08;20.35;;;13.30;99.90;;;;;;5039362;28;20119;-80
2022/07/31 03:56:23;;;;;;;22.67;20.30;;;13.30;99.90;;;;;;5015889;28;20072;-78
2022/07/31 03:58:50;;;;;;;19.42;17.45;;;13.20;99.90;;;;;;5024595;28;20340;-80
2022/07/31 04:01:19;;;;;;;19.95;17.95;;;13.10;99.90;;;;;;5030108;28;20048;-82
2022/07/31 04:03:57;;;;;;;21.10;18.65;;;13.10;99.90;;;;;;5026420;28;20044;-80
2022/07/31 04:06:30;;;;;;;20.85;17.63;;;13.10;99.90;;;;;;5046315;28;20040;-83
2022/07/31 04:09:00;;;;;;;18.55;16.73;;;13.10;99.90;;;;;;5056467;28;20348;-81
2022/07/31 04:11:39;;;;;;;18.40;16.77;;;13.00;99.90;;;;;;5049696;28;20028;-80
2022/07/31 04:14:07;;;;;;;17.90;16.38;;;12.90;99.90;;;;;;5055517;28;20455;-81
2022/07/31 04:16:33;;;;;;;18.25;16.58;;;12.90;99.90;;;;;;5041593;28;20045;-79
2022/07/31 04:19:00;;;;;;;19.67;17.80;;;13.10;99.90;;;;;;5022059;28;20517;-79
2022/07/31 04:21:28;;;;;;;21.77;19.73;;;13.10;99.90;;;;;;5016845;28;20050;-83
2022/07/31 04:23:54;;;;;;;20.55;18.70;;;13.20;99.90;;;;;;5019391;28;20044;-82
2022/07/31 04:26:34;;;;;;;20.35;18.48;;;13.20;99.90;;;;;;5020212;28;20050;-79
2022/07/31 04:29:01;;;;;;;19.40;17.73;;;13.40;99.90;;;;;;5018194;28;20041;-80
2022/07/31 04:31:28;;;;;;;19.23;17.52;;;13.70;99.90;;;;;;5004501;28;20037;-82
2022/07/31 04:33:55;;;;;;;18.33;16.90;;;13.90;99.90;;;;;;5019857;28;20508;-79
2022/07/31 04:36:23;;;;;;;19.58;17.60;;;13.80;99.90;;;;;;5032219;28;20037;-82
2022/07/31 04:38:58;;;;;;;;;;;13.90;99.90;;;;;;5057081;28;20157;-79
2022/07/31 04:41:26;;;;;;;20.60;18.55;;;14.10;99.90;;;;;;5014452;28;19982;-78
2022/07/31 04:43:53;;;;;;;21.67;18.77;;;14.20;99.90;;;;;;5004147;28;20049;-83
2022/07/31 04:46:20;;;;;;;21.42;19.20;;;14.00;99.90;;;;;;5021401;28;20037;-80
2022/07/31 04:48:46;;;;;;;20.95;18.67;;;14.10;99.90;;;;;;5004455;28;20068;-83
2022/07/31 04:51:22;;;;;;;23.35;19.70;;;14.10;99.90;;;;;;5008693;28;20069;-80
2022/07/31 04:53:50;;;;;;;20.88;18.77;;;14.30;99.90;;;;;;5026358;28;20120;-78
2022/07/31 04:59:16;;;;;;;21.60;19.40;;;14.50;99.90;;;;;;5049457;28;20045;-83
2022/07/31 05:01:46;;;;;;;21.17;19.05;;;14.70;99.90;;;;;;5019703;28;20052;-82
2022/07/31 05:04:16;;;;;;;21.08;19.27;;;14.70;99.90;;;;;;5013372;28;20049;-82
2022/07/31 05:06:45;;;;;;;20.35;18.45;;;14.90;99.90;;;;;;5021040;28;20032;-80
2022/07/31 05:09:14;;;;;;;18.90;17.05;;;15.00;99.90;;;;;;5041977;28;20110;-81
2022/07/31 05:11:47;;;;;;;20.23;18.30;;;15.10;99.90;;;;;;5033574;28;20052;-82
2022/07/31 05:14:16;;;;;;;20.92;18.60;;;15.20;99.90;;;;;;5044803;28;20109;-84
2022/07/31 05:16:43;;;;;;;28.40;19.67;;;15.30;99.90;;;;;;5060217;28;20261;-84
2022/07/31 05:19:11;;;;;;;19.85;18.27;;;15.40;99.90;;;;;;5063349;28;20056;-84
2022/07/31 05:21:45;;;;;;;21.90;19.75;;;15.50;99.90;;;;;;5051162;28;20041;-82
2022/07/31 05:24:41;;;;;;;22.85;20.67;;;15.50;99.90;;;;;;5037403;28;20405;-79
2022/07/31 05:27:11;;;;;;;22.90;20.40;;;15.60;99.90;;;;;;5037833;28;20037;-81
2022/07/31 05:29:40;;;;;;;23.00;21.05;;;15.70;99.90;;;;;;5037054;28;20052;-82
2022/07/31 05:32:07;;;;;;;22.85;21.08;;;15.70;99.90;;;;;;5039249;28;20037;-80
2022/07/31 05:34:35;;;;;;;23.10;21.33;;;15.80;99.90;;;;;;5014964;28;20045;-81
2022/07/31 05:37:03;;;;;;;24.25;22.15;;;16.00;99.90;;;;;;5033315;28;20040;-80
2022/07/31 05:39:31;;;;;;;24.23;22.65;;;16.10;99.90;;;;;;5036541;28;20056;-81
2022/07/31 05:42:17;;;;;;;;;;;16.10;99.90;;;;;;5057004;28;20875;-83
2022/07/31 05:45:08;;;;;;;23.58;21.80;;;16.20;99.90;;;;;;5024713;28;20098;-82
2022/07/31 05:47:35;;;;;;;22.30;20.80;;;16.20;99.90;;;;;;5041449;28;20176;-78
2022/07/31 05:50:08;;;;;;;21.38;19.60;;;16.40;99.90;;;;;;5042025;28;20044;-78
2022/07/31 05:52:34;;;;;;;22.02;20.33;;;16.60;99.90;;;;;;5037785;28;20103;-78
2022/07/31 05:55:17;;;;;;;22.27;20.33;;;16.80;99.90;;;;;;5043790;28;20055;-79
2022/07/31 05:58:04;;;;;;;20.80;19.40;;;16.90;99.90;;;;;;5047687;28;20055;-78
2022/07/31 06:00:31;;;;;;;21.40;19.90;;;17.10;99.90;;;;;;5062042;28;20052;-78
2022/07/31 06:02:59;;;;;;;21.80;20.20;;;17.20;99.90;;;;;;5044942;28;20571;-78
2022/07/31 06:05:44;;;;;;;23.83;22.00;;;17.40;99.90;;;;;;5049155;28;20051;-78
2022/07/31 06:08:11;;;;;;;23.27;21.58;;;17.60;99.90;;;;;;5044486;28;20041;-78
2022/07/31 06:10:42;;;;;;;21.75;20.15;;;17.70;99.90;;;;;;5044225;28;20128;-79
2022/07/31 06:13:10;;;;;;;21.17;19.50;;;17.90;99.90;;;;;;5064014;28;20279;-78
2022/07/31 06:15:38;;;;;;;21.65;20.15;;;18.00;99.90;;;;;;5045274;28;20068;-78
2022/07/31 06:18:11;;;;;;;21.70;20.08;;;18.20;99.90;;;;;;5055789;28;20068;-77
2022/07/31 06:20:38;;;;;;;22.35;20.85;;;18.40;99.90;;;;;;5043881;28;20542;-78
2022/07/31 06:23:05;;;;;;;21.80;20.38;;;18.60;99.90;;;;;;5031660;28;20147;-78
2022/07/31 06:25:58;;;;;;;23.35;21.85;;;18.70;99.90;;;;;;5044618;28;20110;-78
2022/07/31 06:28:26;;;;;;;22.13;20.63;;;19.00;99.90;;;;;;5039327;28;20061;-78
2022/07/31 06:31:18;;;;;;;22.10;20.80;;;19.10;99.90;;;;;;5041161;28;20491;-79
2022/07/31 06:33:45;;;;;;;22.63;20.95;;;19.30;99.90;;;;;;5040853;28;20037;-78
2022/07/31 06:36:15;;;;;;;22.58;20.95;;;19.40;99.90;;;;;;5022712;28;20082;-78
2022/07/31 06:38:55;;;;;;;21.95;20.38;;;19.50;99.90;;;;;;5042204;28;20047;-78
2022/07/31 06:41:43;;;;;;;20.55;19.38;;;19.80;99.90;;;;;;5047713;28;20629;-78
2022/07/31 06:44:29;;;;;;;21.17;19.88;;;20.00;99.90;;;;;;5047760;28;20048;-79
2022/07/31 06:47:16;;;;;;;20.38;19.17;;;20.20;99.90;;;;;;5056712;28;20040;-78
2022/07/31 06:50:02;;;;;;;21.25;19.95;;;20.50;99.90;;;;;;5064439;28;20674;-79
2022/07/31 06:52:36;;;;;;;20.88;19.67;;;20.50;99.90;;;;;;5051296;28;20444;-79
2022/07/31 06:55:05;;;;;;;21.83;20.48;;;20.50;99.90;;;;;;5057711;28;20254;-79
2022/07/31 06:57:33;;;;;;;21.65;20.30;;;20.50;99.90;;;;;;5057049;28;20525;-79
2022/07/31 06:59:59;;;;;;;21.15;19.85;;;20.50;99.90;;;;;;5052379;28;20060;-78
2022/07/31 07:02:33;;;;;;;21.02;19.67;;;20.40;99.90;;;;;;5042424;28;20205;-78
2022/07/31 07:05:00;;;;;;;22.25;20.63;;;20.50;99.90;;;;;;5027365;28;20103;-78
2022/07/31 07:07:36;;;;;;;21.50;20.30;;;20.50;99.90;;;;;;5041108;28;20040;-78
2022/07/31 07:10:06;;;;;;;21.77;20.38;;;20.50;99.90;;;;;;5038763;28;20040;-78
2022/07/31 07:13:02;;;;;;;23.50;22.08;;;20.60;99.90;;;;;;5042901;28;20041;-78
2022/07/31 07:15:33;;;;;;;22.38;20.98;;;20.70;99.90;;;;;;5041716;28;20408;-79
2022/07/31 07:18:00;;;;;;;22.08;20.35;;;20.80;99.90;;;;;;5043202;28;20424;-79
2022/07/31 07:20:37;;;;;;;20.92;19.73;;;20.60;99.90;;;;;;5039404;28;20133;-78
2022/07/31 07:23:04;;;;;;;21.83;20.52;;;20.70;99.90;;;;;;5028629;28;20416;-79
2022/07/31 07:25:46;;;;;;;22.15;20.65;;;20.60;99.90;;;;;;5058060;28;20064;-79
2022/07/31 07:28:14;;;;;;;21.20;19.88;;;20.60;99.90;;;;;;5039888;28;20033;-79
2022/07/31 07:31:00;;;;;;;22.92;21.20;;;20.60;99.90;;;;;;5041264;28;20037;-78
2022/07/31 07:33:28;;;;;;;22.67;21.17;;;20.70;99.90;;;;;;5025424;28;20401;-79
2022/07/31 07:36:12;;;;;;;22.08;20.80;;;20.80;99.90;;;;;;5050911;28;20033;-79
2022/07/31 07:38:55;;;;;;;22.73;21.55;;;21.00;99.90;;;;;;5040654;28;20086;-78
2022/07/31 07:41:23;;;;;;;22.52;21.05;;;21.10;99.90;;;;;;5042628;28;20103;-79
2022/07/31 07:43:51;;;;;;;22.63;21.33;;;21.10;99.90;;;;;;5053508;28;20044;-78
2022/07/31 07:46:23;;;;;;;23.08;21.88;;;21.20;99.90;;;;;;5024346;28;20040;-79
2022/07/31 07:48:54;;;;;;;22.77;21.38;;;21.40;99.90;;;;;;5037231;28;20045;-79
2022/07/31 07:51:43;;;;;;;23.05;21.50;;;21.40;99.90;;;;;;5035257;28;20049;-78
2022/07/31 07:54:48;;;;;;;22.95;21.65;;;21.40;99.90;;;;;;5011793;28;20049;-79
2022/07/31 07:57:34;;;;;;;;;;;21.50;99.90;;;;;;5039916;28;20056;-79
2022/07/31 08:00:06;;;;;;;23.00;21.20;;;21.70;99.90;;;;;;5033633;28;19940;-79
2022/07/31 08:02:44;;;;;;;20.92;19.75;;;21.80;99.90;;;;;;5034348;28;20125;-79
2022/07/31 08:05:33;;;;;;;22.38;20.90;;;21.80;99.90;;;;;;5029630;28;20051;-79
2022/07/31 08:07:59;;;;;;;23.35;21.80;;;21.90;99.90;;;;;;5039964;28;20036;-78
2022/07/31 08:11:03;;;;;;;22.80;21.48;;;22.10;99.90;;;;;;4970762;28;20046;-79
2022/07/31 08:13:51;;;;;;;23.65;22.38;;;22.20;99.90;;;;;;5014540;28;20048;-78
2022/07/31 08:16:36;;;;;;;23.63;22.25;;;22.10;99.90;;;;;;5038331;28;20048;-78
2022/07/31 08:19:05;;;;;;;23.67;22.17;;;22.20;99.90;;;;;;5004515;28;20129;-79
2022/07/31 08:21:34;;;;;;;22.35;21.05;;;22.20;99.90;;;;;;5033229;28;20044;-79
2022/07/31 08:24:01;;;;;;;23.50;22.00;;;22.20;99.90;;;;;;5013678;28;20202;-79
2022/07/31 08:27:22;;;;;;;23.35;22.20;;;22.10;99.90;;;;;;5058331;28;20040;-79
2022/07/31 08:29:18;;;;;;;23.05;21.50;;;22.00;99.90;;;;;;5049339;28;20044;-79
2022/07/31 08:32:02;;;;;;;23.02;21.52;;;22.00;99.90;;;;;;5035385;28;20072;-79
2022/07/31 08:34:49;;;;;;;22.67;21.48;;;22.00;99.90;;;;;;5043384;28;20125;-79
2022/07/31 08:37:18;;;;;;;23.67;22.23;;;22.10;99.90;;;;;;5066385;28;20075;-79
2022/07/31 08:40:05;;;;;;;22.67;21.55;;;22.10;99.90;;;;;;5055360;28;21466;-79
2022/07/31 08:42:36;;;;;;;23.20;21.70;;;22.30;99.90;;;;;;5050363;28;20045;-79
2022/07/31 08:45:07;;;;;;;21.98;20.67;;;22.40;99.90;;;;;;5031616;28;20892;-79
2022/07/31 08:47:43;;;;;;;24.45;23.08;;;22.60;99.90;;;;;;5062369;28;20417;-79
2022/07/31 08:50:14;;;;;;;23.42;22.08;;;22.80;99.90;;;;;;5037109;28;20079;-79
2022/07/31 08:52:44;;;;;;;23.25;22.00;;;23.30;99.90;;;;;;5028700;28;20049;-79
2022/07/31 08:55:21;;;;;;;22.67;21.25;;;23.20;99.90;;;;;;4996805;28;20132;-79
2022/07/31 08:58:07;;;;;;;23.40;21.92;;;23.40;99.90;;;;;;5017808;28;20190;-79
2022/07/31 09:00:34;;;;;;;21.48;20.35;;;23.50;99.90;;;;;;5031304;28;20056;-80
2022/07/31 09:03:02;;;;;;;22.88;21.65;;;23.60;99.90;;;;;;5015802;28;20261;-78
2022/07/31 09:05:51;;;;;;;23.58;22.05;;;23.60;99.90;;;;;;5032901;28;20045;-79
2022/07/31 09:08:18;;;;;;;23.02;21.65;;;23.60;99.90;;;;;;5034031;28;20111;-79
2022/07/31 09:10:48;;;;;;;22.75;21.40;;;23.50;99.90;;;;;;5015286;28;20076;-79
2022/07/31 09:13:18;;;;;;;23.85;22.55;;;23.50;99.90;;;;;;5001964;28;20091;-79
2022/07/31 09:15:46;;;;;;;22.63;21.33;;;23.50;99.90;;;;;;5017117;28;20040;-79
2022/07/31 09:18:20;;;;;;;22.55;21.23;;;23.60;99.90;;;;;;5020650;28;20041;-79
2022/07/31 09:21:03;;;;;;;22.90;21.50;;;23.70;99.90;;;;;;4995530;28;20041;-79
2022/07/31 09:23:31;;;;;;;22.65;21.33;;;23.80;99.90;;;;;;5030729;28;20053;-79
2022/07/31 09:26:04;;;;;;;22.75;21.15;;;23.80;99.90;;;;;;5011278;28;20049;-79
2022/07/31 09:28:40;;;;;;;22.10;20.77;;;23.90;99.90;;;;;;5021244;28;20053;-79
2022/07/31 09:31:09;;;;;;;22.00;20.90;;;23.80;99.90;;;;;;5016346;28;20053;-79
2022/07/31 09:33:48;;;;;;;23.58;22.25;;;23.90;99.90;;;;;;5013976;28;20045;-79
2022/07/31 09:36:34;;;;;;;22.80;21.38;;;23.80;99.90;;;;;;5025947;28;20051;-79
2022/07/31 09:39:27;;;;;;;22.92;21.23;;;23.70;99.90;;;;;;5025620;28;20042;-79
2022/07/31 09:42:14;;;;;;;22.23;21.13;;;23.70;99.90;;;;;;5024005;28;20037;-79
2022/07/31 09:44:58;;;;;;;22.00;20.80;;;23.40;99.90;;;;;;5000889;28;20558;-79
2022/07/31 09:47:30;;;;;;;22.05;20.65;;;23.50;99.90;;;;;;5000255;28;20406;-79
2022/07/31 09:50:04;;;;;;;21.98;20.73;;;23.70;99.90;;;;;;5012961;28;20037;-79
2022/07/31 09:52:32;;;;;;;22.27;20.88;;;23.90;99.90;;;;;;5017046;28;20048;-80
2022/07/31 09:55:04;;;;;;;22.95;21.23;;;24.00;99.90;;;;;;5017717;28;20548;-79
2022/07/31 09:57:52;;;;;;;24.20;22.20;;;24.10;99.90;;;;;;5019886;28;20463;-79
2022/07/31 10:00:20;;;;;;;23.35;21.92;;;24.30;99.90;;;;;;5013364;28;20052;-79
2022/07/31 10:02:48;;;;;;;22.00;20.63;;;24.60;99.90;;;;;;5024937;28;20045;-79
2022/07/31 10:05:17;;;;;;;21.77;20.35;;;24.60;99.90;;;;;;5018406;28;20043;-79
2022/07/31 10:07:46;;;;;;;22.60;21.05;;;24.80;99.90;;;;;;5031177;28;20045;-79
2022/07/31 10:10:22;;;;;;;21.73;20.33;;;25.00;99.90;;;;;;5020130;28;20060;-79
2022/07/31 10:13:22;;;;;;;22.17;20.88;;;25.10;99.90;;;;;;5012175;28;20034;-80
2022/07/31 10:15:53;;;;;;;25.35;23.67;;;25.20;99.90;;;;;;5004963;28;20049;-80
2022/07/31 10:18:44;;;;;;;23.95;22.38;;;25.20;99.90;;;;;;5025601;28;20072;-80
2022/07/31 10:21:38;;;;;;;26.20;24.50;;;25.50;99.90;;;;;;5020012;28;20057;-80
2022/07/31 10:24:10;;;;;;;24.88;23.48;;;25.50;99.90;;;;;;4992732;28;20103;-79
2022/07/31 10:26:37;;;;;;;24.08;22.70;;;25.80;99.90;;;;;;4998222;28;20061;-80
2022/07/31 10:29:25;;;;;;;22.60;21.35;;;26.20;99.90;;;;;;5013063;28;20033;-79
2022/07/31 10:31:59;;;;;;;22.38;21.02;;;26.50;99.90;;;;;;5016880;28;20973;-79
2022/07/31 10:34:27;;;;;;;23.00;21.27;;;26.80;99.90;;;;;;4996780;28;20052;-79
2022/07/31 10:37:19;;;;;;;23.58;22.00;;;26.80;99.90;;;;;;5009780;28;20048;-79
2022/07/31 10:40:14;;;;;;;22.55;21.13;;;26.60;99.90;;;;;;5031077;28;20454;-79
2022/07/31 10:43:02;;;;;;;23.20;21.80;;;26.30;99.90;;;;;;5057735;28;20752;-79
2022/07/31 10:45:30;;;;;;;23.25;21.92;;;26.20;99.90;;;;;;5036922;28;20033;-80
2022/07/31 10:48:17;;;;;;;22.55;21.15;;;25.90;99.90;;;;;;5052715;28;20037;-79
2022/07/31 10:51:06;;;;;;;23.52;21.95;;;25.80;99.90;;;;;;5022771;28;20123;-79
2022/07/31 10:54:04;;;;;;;22.48;21.02;;;26.00;99.90;;;;;;5044528;28;20040;-79
2022/07/31 10:56:57;;;;;;;22.60;21.20;;;26.30;99.90;;;;;;5048620;28;20127;-79
2022/07/31 10:59:43;;;;;;;23.38;21.88;;;26.40;99.90;;;;;;5064742;28;20036;-79
2022/07/31 11:02:30;;;;;;;23.27;21.80;;;26.50;99.90;;;;;;5038253;28;20044;-79
2022/07/31 11:05:13;;;;;;;23.10;21.90;;;26.30;99.90;;;;;;5023580;28;20171;-79
2022/07/31 11:08:10;;;;;;;21.90;20.38;;;26.40;99.90;;;;;;5030278;28;20037;-79
2022/07/31 11:10:59;;;;;;;23.23;21.42;;;26.10;99.90;;;;;;5038168;28;20124;-79
2022/07/31 11:13:49;;;;;;;22.75;21.65;;;25.80;99.90;;;;;;5027892;28;20041;-79
2022/07/31 11:16:33;;;;;;;22.88;21.33;;;25.50;99.90;;;;;;5050207;28;20117;-80
2022/07/31 11:19:19;;;;;;;22.40;21.20;;;25.40;99.90;;;;;;5038123;28;20049;-79
2022/07/31 11:21:46;;;;;;;22.20;20.92;;;25.50;99.90;;;;;;5053088;28;20816;-79
2022/07/31 11:24:21;;;;;;;21.50;20.40;;;25.30;99.90;;;;;;5036709;28;20048;-79
2022/07/31 11:26:51;;;;;;;23.10;21.80;;;25.30;99.90;;;;;;5025029;28;20053;-79
2022/07/31 11:29:46;;;;;;;22.92;21.63;;;25.30;99.90;;;;;;5043250;28;20049;-79
2022/07/31 11:32:29;;;;;;;22.90;21.50;;;25.40;99.90;;;;;;5036106;28;20041;-78
2022/07/31 11:34:56;;;;;;;22.23;21.00;;;25.60;99.90;;;;;;5005859;28;20062;-78
2022/07/31 11:37:29;;;;;;;22.15;20.80;;;25.80;99.90;;;;;;5039400;28;20044;-79
2022/07/31 11:40:12;;;;;;;22.80;21.35;;;25.90;99.90;;;;;;5039426;28;20045;-79
2022/07/31 11:42:42;;;;;;;22.02;20.63;;;26.00;99.90;;;;;;5039105;28;20036;-79
2022/07/31 11:45:10;;;;;;;22.83;21.23;;;26.20;99.90;;;;;;5043089;28;20040;-79
2022/07/31 11:47:42;;;;;;;23.27;21.77;;;26.00;99.90;;;;;;5025019;28;20040;-79
2022/07/31 11:50:54;;;;;;;24.02;22.42;;;25.80;99.90;;;;;;5015060;28;20037;-76
2022/07/31 11:53:21;;;;;;;24.20;22.15;;;25.90;99.90;;;;;;5017835;28;20048;-75
2022/07/31 11:55:57;;;;;;;23.65;22.02;;;25.90;99.90;;;;;;5017039;28;20053;-76
2022/07/31 11:58:26;;;;;;;23.63;22.20;;;25.70;99.90;;;;;;5015355;28;20053;-76
2022/07/31 12:00:59;;;;;;;23.02;21.65;;;25.50;99.90;;;;;;5017475;28;20045;-75
2022/07/31 12:03:36;;;;;;;24.10;22.67;;;25.60;99.90;;;;;;5019932;28;20118;-75
2022/07/31 12:06:05;;;;;;;23.85;22.45;;;25.70;99.90;;;;;;5033313;28;20046;-75
2022/07/31 12:08:34;;;;;;;24.27;22.75;;;25.80;99.90;;;;;;5014734;28;20080;-76
2022/07/31 12:11:03;;;;;;;24.25;22.85;;;26.00;99.90;;;;;;5030038;28;20107;-75
2022/07/31 12:13:31;;;;;;;23.63;22.13;;;26.10;99.90;;;;;;5014026;28;20052;-75
2022/07/31 12:15:59;;;;;;;24.17;22.77;;;26.20;99.90;;;;;;5018002;28;20114;-75
2022/07/31 12:18:31;;;;;;;25.77;24.27;;;26.20;99.90;;;;;;5045590;28;20045;-76
2022/07/31 12:21:03;;;;;;;24.48;22.67;;;26.20;99.90;;;;;;5036632;28;20068;-75
2022/07/31 12:23:40;;;;;;;23.75;22.45;;;26.30;99.90;;;;;;5036569;28;20102;-75
2022/07/31 12:26:11;;;;;;;23.23;21.83;;;26.30;99.90;;;;;;5030591;28;20068;-74
2022/07/31 12:28:39;;;;;;;23.40;22.10;;;26.40;99.90;;;;;;5017550;28;20052;-74
2022/07/31 12:31:06;;;;;;;23.65;22.33;;;26.30;99.90;;;;;;5016499;28;20061;-75
2022/07/31 12:33:41;;;;;;;22.90;21.50;;;26.00;99.90;;;;;;5018300;28;20115;-74
2022/07/31 12:36:13;;;;;;;23.58;22.00;;;25.80;99.90;;;;;;5025885;28;20048;-74
2022/07/31 12:38:40;;;;;;;23.45;21.95;;;25.70;99.90;;;;;;5025529;28;20041;-74
2022/07/31 12:41:14;;;;;;;23.80;22.40;;;25.70;99.90;;;;;;5017124;28;20087;-75
2022/07/31 12:43:43;;;;;;;25.25;23.50;;;25.80;99.90;;;;;;5034105;28;20049;-75
2022/07/31 12:46:34;;;;;;;23.70;22.15;;;26.00;99.90;;;;;;5019314;28;20056;-74
2022/07/31 12:49:02;;;;;;;25.33;23.88;;;25.80;99.90;;;;;;5020080;28;20051;-74
2022/07/31 12:51:32;;;;;;;27.73;26.15;;;25.80;99.90;;;;;;5032143;28;20048;-73
2022/07/31 12:54:15;;;;;;;25.05;23.42;;;26.00;99.90;;;;;;5016385;28;20056;-75
2022/07/31 12:56:42;;;;;;;24.65;23.02;;;26.20;99.90;;;;;;5015708;28;20084;-75
2022/07/31 12:59:09;;;;;;;22.95;21.55;;;26.10;99.90;;;;;;5019066;28;20526;-75
2022/07/31 13:01:36;;;;;;;24.27;22.77;;;25.80;99.90;;;;;;5032358;28;20053;-76
2022/07/31 13:04:05;;;;;;;24.35;22.73;;;25.50;99.90;;;;;;5042443;28;20045;-76
2022/07/31 13:06:36;;;;;;;24.05;22.65;;;25.50;99.90;;;;;;5024911;28;20057;-76